createdAt,value
2018-05-14T00:01:08.334Z,18.39
2018-05-14T00:03:34.642Z,18.41
2018-05-14T00:06:00.946Z,18.43
2018-05-14T00:08:27.251Z,18.42
2018-05-14T00:10:53.554Z,18.41
2018-05-14T00:13:19.859Z,18.42
2018-05-14T00:15:46.195Z,18.42
2018-05-14T00:18:12.500Z,18.43
2018-05-14T00:20:38.803Z,18.44
2018-05-14T00:23:05.106Z,18.42
2018-05-14T00:25:31.410Z,18.43
2018-05-14T00:27:57.712Z,18.43
2018-05-14T00:30:24.021Z,18.41
2018-05-14T00:32:50.322Z,18.41
2018-05-14T00:35:16.626Z,18.42
2018-05-14T00:37:42.929Z,18.38
2018-05-14T00:40:09.330Z,18.42
2018-05-14T00:42:35.538Z,18.43
2018-05-14T00:45:01.849Z,18.41
2018-05-14T00:47:28.155Z,18.42
2018-05-14T00:49:54.463Z,18.41
2018-05-14T00:52:20.769Z,18.40
2018-05-14T00:54:47.069Z,18.41
2018-05-14T00:57:13.373Z,18.41
2018-05-14T00:59:39.674Z,18.42
2018-05-14T01:02:05.980Z,18.42
2018-05-14T01:04:32.281Z,18.42
2018-05-14T01:06:58.583Z,18.43
2018-05-14T01:09:24.881Z,18.43
2018-05-14T01:11:51.188Z,18.42
2018-05-14T01:14:17.496Z,18.39
2018-05-14T01:16:43.797Z,18.37
2018-05-14T01:19:10.143Z,18.36
2018-05-14T01:21:36.448Z,18.36
2018-05-14T01:24:02.769Z,18.36
2018-05-14T01:26:29.075Z,18.34
2018-05-14T01:28:55.420Z,18.35
2018-05-14T01:31:21.722Z,18.34
2018-05-14T01:33:48.026Z,18.33
2018-05-14T01:36:14.373Z,18.34
2018-05-14T01:38:40.715Z,18.32
2018-05-14T01:41:07.021Z,18.34
2018-05-14T01:43:33.368Z,18.33
2018-05-14T01:45:59.670Z,18.32
2018-05-14T01:48:26.005Z,18.33
2018-05-14T01:50:52.307Z,18.33
2018-05-14T01:53:18.619Z,18.33
2018-05-14T01:55:44.919Z,18.31
2018-05-14T01:58:11.221Z,18.24
2018-05-14T02:00:37.527Z,18.19
2018-05-14T02:03:03.834Z,18.17
2018-05-14T02:05:30.134Z,18.18
2018-05-14T02:07:56.438Z,18.12
2018-05-14T02:10:22.770Z,18.10
2018-05-14T02:12:49.114Z,18.05
2018-05-14T02:15:15.417Z,18.04
2018-05-14T02:17:41.723Z,18.00
2018-05-14T02:20:08.061Z,17.97
2018-05-14T02:22:34.368Z,18.01
2018-05-14T02:25:00.713Z,18.02
2018-05-14T02:27:27.053Z,18.03
2018-05-14T02:29:53.365Z,17.99
2018-05-14T02:32:19.709Z,17.96
2018-05-14T02:34:46.015Z,17.88
2018-05-14T02:37:12.333Z,17.78
2018-05-14T02:39:38.645Z,17.82
2018-05-14T02:42:04.943Z,17.80
2018-05-14T02:44:31.282Z,17.80
2018-05-14T02:46:57.585Z,17.79
2018-05-14T02:49:23.931Z,17.82
2018-05-14T02:51:50.229Z,17.81
2018-05-14T02:54:16.573Z,17.78
2018-05-14T02:56:42.878Z,17.76
2018-05-14T02:59:09.182Z,17.73
2018-05-14T03:01:35.492Z,17.74
2018-05-14T03:04:01.847Z,17.78
2018-05-14T03:06:28.147Z,17.80
2018-05-14T03:08:54.444Z,17.82
2018-05-14T03:11:20.759Z,17.82
2018-05-14T03:13:47.103Z,17.79
2018-05-14T03:16:13.446Z,17.77
2018-05-14T03:18:39.754Z,17.73
2018-05-14T03:21:06.097Z,17.73
2018-05-14T03:23:32.439Z,17.71
2018-05-14T03:25:58.737Z,17.66
2018-05-14T03:28:25.043Z,17.63
2018-05-14T03:30:51.361Z,17.62
2018-05-14T03:33:17.666Z,17.64
2018-05-14T03:35:44.009Z,17.63
2018-05-14T03:38:10.309Z,17.64
2018-05-14T03:40:36.613Z,17.64
2018-05-14T03:43:02.919Z,17.65
2018-05-14T03:45:29.230Z,17.65
2018-05-14T03:47:55.530Z,17.67
2018-05-14T03:50:21.834Z,17.73
2018-05-14T03:52:48.196Z,17.72
2018-05-14T03:55:14.489Z,17.72
2018-05-14T03:57:40.800Z,17.72
2018-05-14T04:00:07.150Z,17.75
2018-05-14T04:02:33.449Z,17.76
2018-05-14T04:04:59.757Z,17.77
2018-05-14T04:07:26.061Z,17.75
2018-05-14T04:09:52.409Z,17.74
2018-05-14T04:12:18.721Z,17.72
2018-05-14T04:14:45.011Z,17.69
2018-05-14T04:17:11.323Z,17.66
2018-05-14T04:19:37.631Z,17.68
2018-05-14T04:22:03.956Z,17.66
2018-05-14T04:24:30.277Z,17.64
2018-05-14T04:26:56.569Z,17.66
2018-05-14T04:29:22.868Z,17.67
2018-05-14T04:31:49.187Z,17.68
2018-05-14T04:34:15.491Z,17.71
2018-05-14T04:36:41.813Z,17.77
2018-05-14T04:39:08.154Z,17.78
2018-05-14T04:41:34.467Z,17.84
2018-05-14T04:44:00.815Z,17.85
2018-05-14T04:46:27.172Z,17.84
2018-05-14T04:48:53.524Z,17.83
2018-05-14T04:51:19.828Z,17.87
2018-05-14T04:53:46.119Z,17.90
2018-05-14T04:56:12.408Z,17.94
2018-05-14T04:58:38.698Z,17.96
2018-05-14T05:01:05.031Z,17.99
2018-05-14T05:03:31.359Z,18.02
2018-05-14T05:05:57.692Z,18.03
2018-05-14T05:08:24.020Z,18.06
2018-05-14T05:10:50.351Z,18.07
2018-05-14T05:13:16.634Z,18.06
2018-05-14T05:15:42.926Z,18.08
2018-05-14T05:18:09.332Z,18.05
2018-05-14T05:20:35.598Z,18.01
2018-05-14T05:23:01.885Z,18.02
2018-05-14T05:25:28.215Z,18.02
2018-05-14T05:27:54.511Z,18.06
2018-05-14T05:30:20.840Z,18.08
2018-05-14T05:32:47.169Z,18.09
2018-05-14T05:35:13.455Z,18.08
2018-05-14T05:37:39.882Z,18.06
2018-05-14T05:40:06.096Z,18.11
2018-05-14T05:42:32.430Z,18.18
2018-05-14T05:44:58.762Z,18.23
2018-05-14T05:47:25.091Z,18.29
2018-05-14T05:49:51.378Z,18.33
2018-05-14T05:52:17.669Z,18.37
2018-05-14T05:54:43.964Z,18.39
2018-05-14T05:57:10.261Z,18.46
2018-05-14T05:59:36.569Z,18.53
2018-05-14T06:02:02.860Z,18.56
2018-05-14T06:04:29.189Z,18.54
2018-05-14T06:06:55.524Z,18.52
2018-05-14T06:09:21.932Z,18.52
2018-05-14T06:11:48.152Z,18.56
2018-05-14T06:14:14.451Z,18.61
2018-05-14T06:16:40.755Z,18.65
2018-05-14T06:19:07.051Z,18.72
2018-05-14T06:21:33.348Z,18.78
2018-05-14T06:23:59.634Z,18.80
2018-05-14T06:26:25.927Z,18.93
2018-05-14T06:28:52.221Z,19.15
2018-05-14T06:31:18.508Z,19.26
2018-05-14T06:33:44.835Z,19.44
2018-05-14T06:36:11.120Z,19.59
2018-05-14T06:38:37.412Z,19.65
2018-05-14T06:41:03.698Z,19.70
2018-05-14T06:43:29.980Z,19.85
2018-05-14T06:45:56.271Z,19.97
2018-05-14T06:48:22.560Z,20.00
2018-05-14T06:50:48.849Z,20.18
2018-05-14T06:53:15.140Z,20.31
2018-05-14T06:55:41.472Z,20.43
2018-05-14T06:58:07.783Z,20.43
2018-05-14T07:00:34.068Z,20.48
2018-05-14T07:03:00.355Z,20.57
2018-05-14T07:05:26.646Z,20.64
2018-05-14T07:07:52.972Z,20.65
2018-05-14T07:10:19.261Z,20.63
2018-05-14T07:12:45.589Z,20.55
2018-05-14T07:15:11.893Z,20.62
2018-05-14T07:17:38.175Z,20.83
2018-05-14T07:20:04.468Z,21.00
2018-05-14T07:22:30.764Z,21.15
2018-05-14T07:24:57.057Z,21.28
2018-05-14T07:27:23.352Z,21.41
2018-05-14T07:29:49.643Z,21.58
2018-05-14T07:32:15.932Z,21.79
2018-05-14T07:34:42.219Z,21.91
2018-05-14T07:37:08.503Z,22.00
2018-05-14T07:39:34.804Z,21.98
2018-05-14T07:42:01.088Z,22.04
2018-05-14T07:44:27.382Z,22.06
2018-05-14T07:46:53.671Z,22.11
2018-05-14T07:49:20.063Z,22.24
2018-05-14T07:51:46.251Z,22.44
2018-05-14T07:54:12.547Z,22.63
2018-05-14T07:56:38.835Z,22.79
2018-05-14T07:59:05.125Z,22.95
2018-05-14T08:01:31.415Z,23.08
2018-05-14T08:03:57.705Z,23.19
2018-05-14T08:06:23.997Z,23.18
2018-05-14T08:08:50.294Z,23.18
2018-05-14T08:11:16.585Z,23.29
2018-05-14T08:13:42.884Z,23.41
2018-05-14T08:16:09.177Z,23.45
2018-05-14T08:18:35.470Z,23.52
2018-05-14T08:21:01.756Z,23.53
2018-05-14T08:23:28.093Z,23.54
2018-05-14T08:25:54.329Z,23.53
2018-05-14T08:28:20.623Z,23.60
2018-05-14T08:30:46.911Z,23.77
2018-05-14T08:33:13.203Z,23.95
2018-05-14T08:35:39.538Z,23.87
2018-05-14T08:38:05.831Z,23.93
2018-05-14T08:40:32.125Z,23.96
2018-05-14T08:42:58.412Z,23.82
2018-05-14T08:45:24.703Z,23.75
2018-05-14T08:47:50.995Z,23.62
2018-05-14T08:50:17.278Z,23.41
2018-05-14T08:52:43.569Z,23.52
2018-05-14T08:55:09.859Z,23.67
2018-05-14T08:57:36.200Z,23.84
2018-05-14T09:00:02.545Z,24.00
2018-05-14T09:02:28.745Z,24.09
2018-05-14T09:04:55.044Z,24.16
2018-05-14T09:07:21.335Z,24.18
2018-05-14T09:09:47.620Z,24.16
2018-05-14T09:12:13.915Z,24.22
2018-05-14T09:14:40.203Z,24.16
2018-05-14T09:17:06.532Z,24.19
2018-05-14T09:19:32.909Z,24.06
2018-05-14T09:21:59.105Z,24.00
2018-05-14T09:24:25.409Z,23.93
2018-05-14T09:26:51.692Z,23.97
2018-05-14T09:29:17.981Z,24.02
2018-05-14T09:31:44.310Z,24.17
2018-05-14T09:34:10.597Z,24.32
2018-05-14T09:36:36.884Z,24.47
2018-05-14T09:39:03.170Z,24.44
2018-05-14T09:41:29.465Z,24.22
2018-05-14T09:43:55.804Z,24.00
2018-05-14T09:46:22.097Z,23.88
2018-05-14T09:48:48.398Z,23.76
2018-05-14T09:51:14.689Z,23.66
2018-05-14T09:53:41.084Z,23.62
2018-05-14T09:56:07.319Z,23.62
2018-05-14T09:58:33.617Z,23.54
2018-05-14T10:00:59.902Z,23.58
2018-05-14T10:03:26.208Z,23.66
2018-05-14T10:05:52.502Z,23.69
2018-05-14T10:08:18.838Z,23.69
2018-05-14T10:10:45.123Z,23.74
2018-05-14T10:13:11.419Z,23.75
2018-05-14T10:15:37.706Z,23.70
2018-05-14T10:18:03.988Z,23.64
2018-05-14T10:20:30.324Z,23.56
2018-05-14T10:22:56.795Z,23.48
2018-05-14T10:25:22.916Z,23.44
2018-05-14T10:27:49.207Z,23.45
2018-05-14T10:30:15.531Z,23.48
2018-05-14T10:32:41.820Z,23.51
2018-05-14T10:35:08.154Z,23.48
2018-05-14T10:37:34.477Z,23.40
2018-05-14T10:40:00.808Z,23.32
2018-05-14T10:42:27.163Z,23.24
2018-05-14T10:44:53.427Z,23.19
2018-05-14T10:47:19.714Z,23.15
2018-05-14T10:49:46.030Z,23.11
2018-05-14T10:52:12.322Z,23.08
2018-05-14T10:54:38.608Z,23.02
2018-05-14T10:57:04.906Z,22.98
2018-05-14T10:59:31.195Z,22.89
2018-05-14T11:01:57.494Z,22.83
2018-05-14T11:04:23.795Z,22.76
2018-05-14T11:06:50.083Z,22.67
2018-05-14T11:09:16.401Z,22.60
2018-05-14T11:11:42.679Z,22.55
2018-05-14T11:14:08.981Z,22.49
2018-05-14T11:16:35.275Z,22.46
2018-05-14T11:19:01.567Z,22.40
2018-05-14T11:21:27.851Z,22.35
2018-05-14T11:23:54.145Z,22.32
2018-05-14T11:26:20.477Z,22.22
2018-05-14T11:28:46.765Z,22.12
2018-05-14T11:31:13.061Z,22.07
2018-05-14T11:33:40.424Z,22.09
2018-05-14T11:36:06.712Z,22.12
2018-05-14T11:38:33.011Z,22.15
2018-05-14T11:40:59.300Z,22.19
2018-05-14T11:43:25.596Z,22.22
2018-05-14T11:45:51.909Z,22.24
2018-05-14T11:48:18.207Z,22.24
2018-05-14T11:50:44.676Z,22.23
2018-05-14T11:53:10.923Z,22.17
2018-05-14T11:55:37.259Z,22.14
2018-05-14T11:58:03.549Z,22.13
2018-05-14T12:00:29.833Z,22.14
2018-05-14T12:02:56.163Z,22.22
2018-05-14T12:05:22.469Z,22.30
2018-05-14T12:07:48.755Z,22.35
2018-05-14T12:10:15.041Z,22.35
2018-05-14T12:12:41.343Z,22.31
2018-05-14T12:15:07.636Z,22.30
2018-05-14T12:17:33.930Z,22.32
2018-05-14T12:20:00.220Z,22.35
2018-05-14T12:22:26.512Z,22.41
2018-05-14T12:24:52.809Z,22.45
2018-05-14T12:27:19.144Z,22.51
2018-05-14T12:29:45.426Z,22.61
2018-05-14T12:32:11.754Z,22.63
2018-05-14T12:34:38.014Z,22.68
2018-05-14T12:37:04.311Z,22.65
2018-05-14T12:39:30.635Z,22.59
2018-05-14T12:41:56.927Z,22.61
2018-05-14T12:44:23.221Z,22.63
2018-05-14T12:46:49.543Z,22.69
2018-05-14T12:49:15.834Z,22.76
2018-05-14T12:51:42.130Z,22.87
2018-05-14T12:54:08.441Z,22.88
2018-05-14T12:56:34.733Z,22.87
2018-05-14T12:59:01.025Z,22.86
2018-05-14T13:01:27.339Z,22.88
2018-05-14T13:03:53.633Z,22.88
2018-05-14T13:06:19.941Z,22.87
2018-05-14T13:08:46.233Z,22.82
2018-05-14T13:11:12.535Z,22.79
2018-05-14T13:13:38.829Z,22.74
2018-05-14T13:16:05.122Z,22.72
2018-05-14T13:18:31.419Z,22.69
2018-05-14T13:20:57.717Z,22.70
2018-05-14T13:23:24.015Z,22.71
2018-05-14T13:25:50.303Z,22.71
2018-05-14T13:28:16.591Z,22.72
2018-05-14T13:30:42.880Z,22.75
2018-05-14T13:33:09.172Z,22.74
2018-05-14T13:35:35.457Z,22.74
2018-05-14T13:38:01.875Z,22.79
2018-05-14T13:40:28.066Z,22.84
2018-05-14T13:42:54.491Z,22.90
2018-05-14T13:45:20.704Z,22.94
2018-05-14T13:47:47.003Z,22.99
2018-05-14T13:50:13.290Z,22.99
2018-05-14T13:52:39.583Z,22.99
2018-05-14T13:55:05.876Z,22.98
2018-05-14T13:57:32.215Z,22.94
2018-05-14T13:59:58.513Z,22.91
2018-05-14T14:02:24.809Z,22.91
2018-05-14T14:04:51.225Z,22.87
2018-05-14T14:07:17.433Z,22.83
2018-05-14T14:09:43.778Z,22.83
2018-05-14T14:12:10.072Z,22.82
2018-05-14T14:14:36.360Z,22.83
2018-05-14T14:17:02.729Z,22.83
2018-05-14T14:19:28.936Z,22.82
2018-05-14T14:21:55.235Z,22.79
2018-05-14T14:24:21.566Z,22.77
2018-05-14T14:26:47.814Z,22.71
2018-05-14T14:29:14.121Z,22.67
2018-05-14T14:31:40.413Z,22.48
2018-05-14T14:34:06.713Z,22.27
2018-05-14T14:36:33.012Z,22.17
2018-05-14T14:38:59.313Z,22.13
2018-05-14T14:41:25.605Z,22.10
2018-05-14T14:43:51.904Z,22.06
2018-05-14T14:46:18.217Z,21.90
2018-05-14T14:48:44.487Z,21.89
2018-05-14T14:51:10.788Z,21.93
2018-05-14T14:53:37.150Z,21.95
2018-05-14T14:56:03.374Z,21.97
2018-05-14T14:58:29.659Z,21.96
2018-05-14T15:00:56.003Z,21.95
2018-05-14T15:03:22.295Z,21.93
2018-05-14T15:05:48.583Z,22.00
2018-05-14T15:08:14.870Z,22.04
2018-05-14T15:10:41.170Z,22.08
2018-05-14T15:13:07.474Z,22.13
2018-05-14T15:15:33.796Z,22.16
2018-05-14T15:18:00.059Z,22.17
2018-05-14T15:20:26.396Z,22.17
2018-05-14T15:22:52.694Z,22.14
2018-05-14T15:25:19.274Z,22.13
2018-05-14T15:27:45.559Z,22.15
2018-05-14T15:30:11.880Z,22.17
2018-05-14T15:32:38.180Z,22.17
2018-05-14T15:35:04.519Z,22.17
2018-05-14T15:37:30.827Z,22.13
2018-05-14T15:39:58.172Z,22.12
2018-05-14T15:42:24.519Z,22.06
2018-05-14T15:44:50.818Z,22.05
2018-05-14T15:47:17.276Z,22.02
2018-05-14T15:49:43.574Z,21.97
2018-05-14T15:52:09.879Z,21.97
2018-05-14T15:54:36.173Z,21.99
2018-05-14T15:57:02.646Z,21.98
2018-05-14T15:59:28.945Z,21.95
2018-05-14T16:01:55.378Z,21.95
2018-05-14T16:04:21.697Z,21.95
2018-05-14T16:06:47.988Z,21.91
2018-05-14T16:09:14.281Z,21.87
2018-05-14T16:11:40.580Z,21.85
2018-05-14T16:14:06.915Z,21.83
2018-05-14T16:16:33.215Z,21.83
2018-05-14T16:18:59.999Z,21.83
2018-05-14T16:21:26.457Z,21.83
2018-05-14T16:23:53.578Z,21.80
2018-05-14T16:26:19.925Z,21.76
2018-05-14T16:28:46.157Z,21.70
2018-05-14T16:31:12.443Z,21.63
2018-05-14T16:33:38.734Z,21.62
2018-05-14T16:36:05.035Z,21.60
2018-05-14T16:38:31.401Z,21.61
2018-05-14T16:40:57.686Z,21.56
2018-05-14T16:43:23.983Z,21.50
2018-05-14T16:45:50.276Z,21.51
2018-05-14T16:48:16.572Z,21.53
2018-05-14T16:50:42.869Z,21.53
2018-05-14T16:53:09.156Z,21.52
2018-05-14T16:55:35.462Z,21.49
2018-05-14T16:58:01.758Z,21.46
2018-05-14T17:00:28.114Z,21.42
2018-05-14T17:02:54.411Z,21.41
2018-05-14T17:05:20.705Z,21.39
2018-05-14T17:07:47.007Z,21.35
2018-05-14T17:10:13.315Z,21.33
2018-05-14T17:12:39.788Z,21.32
2018-05-14T17:15:05.935Z,21.27
2018-05-14T17:17:32.246Z,21.24
2018-05-14T17:19:58.547Z,21.18
2018-05-14T17:22:24.937Z,21.17
2018-05-14T17:24:51.275Z,21.15
2018-05-14T17:27:17.576Z,21.13
2018-05-14T17:29:43.881Z,21.11
2018-05-14T17:32:10.179Z,21.10
2018-05-14T17:34:36.467Z,21.13
2018-05-14T17:37:02.769Z,21.15
2018-05-14T17:39:29.071Z,21.16
2018-05-14T17:41:55.369Z,21.12
2018-05-14T17:44:21.725Z,21.09
2018-05-14T17:46:48.012Z,21.07
2018-05-14T17:49:14.307Z,21.09
2018-05-14T17:51:40.627Z,21.10
2018-05-14T17:54:06.917Z,21.07
2018-05-14T17:56:33.203Z,21.05
2018-05-14T17:58:59.491Z,21.02
2018-05-14T18:01:25.823Z,21.02
2018-05-14T18:03:52.120Z,21.00
2018-05-14T18:06:18.412Z,20.97
2018-05-14T18:08:45.872Z,20.95
2018-05-14T18:11:11.000Z,21.01
2018-05-14T18:13:37.289Z,21.08
2018-05-14T18:16:03.592Z,21.06
2018-05-14T18:18:29.890Z,21.02
2018-05-14T18:20:56.188Z,20.96
2018-05-14T18:23:22.490Z,20.95
2018-05-14T18:25:48.811Z,20.96
2018-05-14T18:28:15.101Z,20.97
2018-05-14T18:30:41.400Z,20.94
2018-05-14T18:33:07.729Z,20.93
2018-05-14T18:35:34.036Z,20.95
2018-05-14T18:38:00.324Z,20.94
2018-05-14T18:40:27.472Z,20.91
2018-05-14T18:42:53.808Z,20.92
2018-05-14T18:45:20.113Z,20.90
2018-05-14T18:47:46.436Z,20.89
2018-05-14T18:50:12.732Z,20.88
2018-05-14T18:52:39.030Z,20.89
2018-05-14T18:55:05.326Z,20.90
2018-05-14T18:57:31.636Z,20.89
2018-05-14T18:59:57.974Z,20.88
2018-05-14T19:02:24.267Z,20.89
2018-05-14T19:04:50.554Z,20.88
2018-05-14T19:07:16.845Z,20.84
2018-05-14T19:09:43.131Z,20.82
2018-05-14T19:12:09.474Z,20.82
2018-05-14T19:14:35.766Z,20.84
2018-05-14T19:17:02.094Z,20.84
2018-05-14T19:19:28.389Z,20.84
2018-05-14T19:21:54.803Z,20.81
2018-05-14T19:24:21.865Z,20.79
2018-05-14T19:26:48.210Z,20.79
2018-05-14T19:29:14.521Z,20.75
2018-05-14T19:31:40.819Z,20.75
2018-05-14T19:34:07.124Z,20.76
2018-05-14T19:36:33.412Z,20.71
2018-05-14T19:38:59.705Z,20.69
2018-05-14T19:41:26.000Z,20.67
2018-05-14T19:43:52.293Z,20.59
2018-05-14T19:46:18.584Z,20.54
2018-05-14T19:48:44.886Z,20.53
2018-05-14T19:51:11.176Z,20.48
2018-05-14T19:53:37.464Z,20.47
2018-05-14T19:56:04.077Z,20.49
2018-05-14T19:58:30.356Z,20.51
2018-05-14T20:00:56.660Z,20.45
2018-05-14T20:03:23.013Z,20.41
2018-05-14T20:05:49.251Z,20.37
2018-05-14T20:08:15.668Z,20.34
2018-05-14T20:10:41.907Z,20.32
2018-05-14T20:13:08.262Z,20.27
2018-05-14T20:15:34.661Z,20.31
2018-05-14T20:18:00.900Z,20.35
2018-05-14T20:20:27.257Z,20.38
2018-05-14T20:22:53.536Z,20.42
2018-05-14T20:25:19.856Z,20.42
2018-05-14T20:27:46.150Z,20.40
2018-05-14T20:30:12.447Z,20.40
2018-05-14T20:32:38.759Z,20.37
2018-05-14T20:35:05.069Z,20.35
2018-05-14T20:37:31.379Z,20.35
2018-05-14T20:39:57.670Z,20.34
2018-05-14T20:42:23.960Z,20.35
2018-05-14T20:44:50.268Z,20.31
2018-05-14T20:47:16.597Z,20.29
2018-05-14T20:49:42.892Z,20.30
2018-05-14T20:52:09.257Z,20.29
2018-05-14T20:54:35.519Z,20.27
2018-05-14T20:57:01.851Z,20.23
2018-05-14T20:59:28.147Z,20.20
2018-05-14T21:01:54.442Z,20.18
2018-05-14T21:04:20.772Z,20.19
2018-05-14T21:06:47.063Z,20.17
2018-05-14T21:09:13.431Z,20.16
2018-05-14T21:11:39.716Z,20.17
2018-05-14T21:14:06.011Z,20.14
2018-05-14T21:16:32.297Z,20.11
2018-05-14T21:18:58.605Z,20.07
2018-05-14T21:21:24.941Z,20.04
2018-05-14T21:23:51.228Z,20.05
2018-05-14T21:26:17.524Z,19.99
2018-05-14T21:28:43.822Z,19.97
2018-05-14T21:31:10.167Z,19.94
2018-05-14T21:33:36.401Z,19.94
2018-05-14T21:36:02.691Z,19.94
2018-05-14T21:38:28.980Z,19.88
2018-05-14T21:40:55.316Z,19.86
2018-05-14T21:43:21.606Z,19.85
2018-05-14T21:45:47.938Z,19.86
2018-05-14T21:48:14.272Z,19.84
2018-05-14T21:50:40.566Z,19.78
2018-05-14T21:53:06.854Z,19.78
2018-05-14T21:55:33.136Z,19.78
2018-05-14T21:57:59.430Z,19.78
2018-05-14T22:00:25.721Z,19.75
2018-05-14T22:02:52.065Z,19.73
2018-05-14T22:05:18.360Z,19.70
2018-05-14T22:07:44.654Z,19.70
2018-05-14T22:10:10.951Z,19.70
2018-05-14T22:12:37.245Z,19.69
2018-05-14T22:15:03.568Z,19.68
2018-05-14T22:17:29.860Z,19.67
2018-05-14T22:19:56.153Z,19.64
2018-05-14T22:22:22.493Z,19.63
2018-05-14T22:24:48.796Z,19.60
2018-05-14T22:27:15.081Z,19.56
2018-05-14T22:29:41.379Z,19.56
2018-05-14T22:32:07.664Z,19.52
2018-05-14T22:34:33.993Z,19.51
2018-05-14T22:37:00.285Z,19.50
2018-05-14T22:39:26.578Z,19.46
2018-05-14T22:41:52.879Z,19.43
2018-05-14T22:44:19.211Z,19.42
2018-05-14T22:46:45.499Z,19.40
2018-05-14T22:49:11.835Z,19.39
2018-05-14T22:51:38.130Z,19.38
2018-05-14T22:54:04.463Z,19.37
2018-05-14T22:56:30.808Z,19.35
2018-05-14T22:58:57.105Z,19.30
2018-05-14T23:01:23.395Z,19.29
2018-05-14T23:03:49.687Z,19.32
2018-05-14T23:06:15.973Z,19.30
2018-05-14T23:08:42.285Z,19.26
2018-05-14T23:11:08.655Z,19.25
2018-05-14T23:13:34.951Z,19.20
2018-05-14T23:16:01.246Z,19.18
2018-05-14T23:18:27.564Z,19.19
2018-05-14T23:20:53.857Z,19.20
2018-05-14T23:23:20.182Z,19.19
2018-05-14T23:25:46.505Z,19.16
2018-05-14T23:28:12.829Z,19.14
2018-05-14T23:30:39.148Z,19.10
2018-05-14T23:33:05.448Z,19.07
2018-05-14T23:35:31.750Z,19.06
2018-05-14T23:37:58.044Z,19.07
2018-05-14T23:40:24.342Z,19.06
2018-05-14T23:42:50.658Z,19.02
2018-05-14T23:45:16.955Z,19.01
2018-05-14T23:47:43.245Z,19.01
2018-05-14T23:50:09.570Z,19.01
2018-05-14T23:52:35.870Z,18.98
2018-05-14T23:55:02.168Z,19.01
2018-05-14T23:57:28.460Z,19.01
2018-05-14T23:59:54.772Z,19.02
